sensor_id;sensor_type;location;lat;lon;timestamp;pressure;altitude;pressure_sealevel;temperature;humidity
7662;BME280;30314;48.184;11.510;2023-05-19T00:00:57;96388.84;;;9.41;100.00
7662;BME280;30314;48.184;11.510;2023-05-19T00:03:24;96370.91;;;9.27;100.00
7662;BME280;30314;48.184;11.510;2023-05-19T00:05:52;96379.09;;;9.36;100.00
7662;BME280;30314;48.184;11.510;2023-05-19T00:08:21;96371.44;;;9.29;100.00
7662;BME280;30314;48.184;11.510;2023-05-19T00:10:49;96370.38;;;9.30;100.00
7662;BME280;30314;48.184;11.510;2023-05-19T00:13:16;96371.97;;;9.37;100.00
7662;BME280;30314;48.184;11.510;2023-05-19T00:15:43;96370.13;;;9.37;100.00
7662;BME280;30314;48.184;11.510;2023-05-19T00:18:09;96363.81;;;9.28;100.00
7662;BME280;30314;48.184;11.510;2023-05-19T00:20:39;96369.88;;;9.28;100.00
7662;BME280;30314;48.184;11.510;2023-05-19T00:23:07;96369.34;;;9.42;100.00
7662;BME280;30314;48.184;11.510;2023-05-19T00:25:33;96362.75;;;9.29;100.00
7662;BME280;30314;48.184;11.510;2023-05-19T00:28:00;96361.69;;;9.25;100.00
7662;BME280;30314;48.184;11.510;2023-05-19T00:30:28;96346.91;;;9.19;100.00
7662;BME280;30314;48.184;11.510;2023-05-19T00:32:55;96346.94;;;9.13;100.00
7662;BME280;30314;48.184;11.510;2023-05-19T00:35:23;96359.34;;;9.23;100.00
7662;BME280;30314;48.184;11.510;2023-05-19T00:37:49;96341.09;;;9.11;100.00
7662;BME280;30314;48.184;11.510;2023-05-19T00:40:17;96361.97;;;9.23;100.00
7662;BME280;30314;48.184;11.510;2023-05-19T00:42:44;96357.72;;;9.17;100.00
7662;BME280;30314;48.184;11.510;2023-05-19T00:45:10;96347.97;;;9.07;100.00
7662;BME280;30314;48.184;11.510;2023-05-19T00:47:38;96354.56;;;9.10;100.00
7662;BME280;30314;48.184;11.510;2023-05-19T00:50:05;96347.72;;;9.09;100.00
7662;BME280;30314;48.184;11.510;2023-05-19T00:52:32;96351.66;;;9.06;100.00
7662;BME280;30314;48.184;11.510;2023-05-19T00:54:59;96349.81;;;8.96;100.00
7662;BME280;30314;48.184;11.510;2023-05-19T00:57:26;96341.38;;;8.94;100.00
7662;BME280;30314;48.184;11.510;2023-05-19T00:59:53;96344.53;;;8.91;100.00
7662;BME280;30314;48.184;11.510;2023-05-19T01:02:20;96332.44;;;8.80;100.00
7662;BME280;30314;48.184;11.510;2023-05-19T01:04:48;96337.41;;;8.76;100.00
7662;BME280;30314;48.184;11.510;2023-05-19T01:07:15;96332.16;;;8.81;100.00
7662;BME280;30314;48.184;11.510;2023-05-19T01:09:44;96332.69;;;8.78;100.00
7662;BME280;30314;48.184;11.510;2023-05-19T01:12:12;96330.81;;;8.79;100.00
7662;BME280;30314;48.184;11.510;2023-05-19T01:14:39;96334.00;;;8.70;100.00
7662;BME280;30314;48.184;11.510;2023-05-19T01:17:23;96338.44;;;8.65;100.00
7662;BME280;30314;48.184;11.510;2023-05-19T01:20:03;96338.19;;;8.66;100.00
7662;BME280;30314;48.184;11.510;2023-05-19T01:23:11;96343.97;;;8.63;100.00
7662;BME280;30314;48.184;11.510;2023-05-19T01:31:20;96340.81;;;8.56;100.00
7662;BME280;30314;48.184;11.510;2023-05-19T01:33:51;96342.88;;;8.49;100.00
7662;BME280;30314;48.184;11.510;2023-05-19T01:36:20;96355.53;;;8.52;100.00
7662;BME280;30314;48.184;11.510;2023-05-19T01:38:50;96351.31;;;8.45;100.00
7662;BME280;30314;48.184;11.510;2023-05-19T01:41:19;96357.09;;;8.53;100.00
7662;BME280;30314;48.184;11.510;2023-05-19T01:43:47;96350.53;;;8.55;100.00
7662;BME280;30314;48.184;11.510;2023-05-19T01:46:15;96352.13;;;8.56;100.00
7662;BME280;30314;48.184;11.510;2023-05-19T01:48:44;96348.69;;;8.51;100.00
7662;BME280;30314;48.184;11.510;2023-05-19T01:51:12;96351.84;;;8.53;100.00
7662;BME280;30314;48.184;11.510;2023-05-19T01:53:41;96350.00;;;8.48;100.00
7662;BME280;30314;48.184;11.510;2023-05-19T01:56:07;96336.78;;;8.32;100.00
7662;BME280;30314;48.184;11.510;2023-05-19T01:58:44;96354.19;;;8.34;100.00
7662;BME280;30314;48.184;11.510;2023-05-19T02:01:36;96350.75;;;8.38;100.00
7662;BME280;30314;48.184;11.510;2023-05-19T02:07:02;96350.75;;;8.38;100.00
7662;BME280;30314;48.184;11.510;2023-05-19T02:12:19;96344.69;;;8.32;100.00
7662;BME280;30314;48.184;11.510;2023-05-19T02:15:03;96323.34;;;8.24;100.00
7662;BME280;30314;48.184;11.510;2023-05-19T02:17:34;96338.63;;;8.37;100.00
7662;BME280;30314;48.184;11.510;2023-05-19T02:20:03;96336.00;;;8.27;100.00
7662;BME280;30314;48.184;11.510;2023-05-19T02:22:30;96332.31;;;8.28;100.00
7662;BME280;30314;48.184;11.510;2023-05-19T02:24:57;96337.59;;;8.28;100.00
7662;BME280;30314;48.184;11.510;2023-05-19T02:27:23;96325.19;;;8.23;100.00
7662;BME280;30314;48.184;11.510;2023-05-19T02:29:51;96325.72;;;8.25;100.00
7662;BME280;30314;48.184;11.510;2023-05-19T02:32:19;96328.59;;;8.24;100.00
7662;BME280;30314;48.184;11.510;2023-05-19T02:34:45;96329.38;;;8.19;100.00
7662;BME280;30314;48.184;11.510;2023-05-19T02:37:15;96329.13;;;8.21;100.00
7662;BME280;30314;48.184;11.510;2023-05-19T02:39:42;96323.88;;;8.26;100.00
7662;BME280;30314;48.184;11.510;2023-05-19T02:42:09;96328.59;;;8.13;100.00
7662;BME280;30314;48.184;11.510;2023-05-19T02:44:37;96325.44;;;8.16;100.00
7662;BME280;30314;48.184;11.510;2023-05-19T02:47:04;96328.59;;;8.13;100.00
7662;BME280;30314;48.184;11.510;2023-05-19T02:49:30;96322.81;;;8.16;100.00
7662;BME280;30314;48.184;11.510;2023-05-19T02:52:01;96323.84;;;8.15;100.00
7662;BME280;30314;48.184;11.510;2023-05-19T02:54:33;96309.63;;;8.11;100.00
7662;BME280;30314;48.184;11.510;2023-05-19T02:57:00;96326.22;;;8.17;100.00
7662;BME280;30314;48.184;11.510;2023-05-19T02:59:27;96320.69;;;8.18;100.00
7662;BME280;30314;48.184;11.510;2023-05-19T03:01:56;96316.50;;;8.17;100.00
7662;BME280;30314;48.184;11.510;2023-05-19T03:04:23;96322.28;;;8.20;100.00
7662;BME280;30314;48.184;11.510;2023-05-19T03:06:49;96315.44;;;8.13;100.00
7662;BME280;30314;48.184;11.510;2023-05-19T03:09:16;96316.78;;;8.21;100.00
7662;BME280;30314;48.184;11.510;2023-05-19T03:11:43;96323.09;;;8.20;100.00
7662;BME280;30314;48.184;11.510;2023-05-19T03:14:09;96318.59;;;8.21;100.00
7662;BME280;30314;48.184;11.510;2023-05-19T03:16:37;96310.72;;;8.21;100.00
7662;BME280;30314;48.184;11.510;2023-05-19T03:19:07;96308.88;;;8.21;100.00
7662;BME280;30314;48.184;11.510;2023-05-19T03:21:34;96315.97;;;8.15;100.00
7662;BME280;30314;48.184;11.510;2023-05-19T03:24:01;96312.28;;;8.16;100.00
7662;BME280;30314;48.184;11.510;2023-05-19T03:26:28;96306.78;;;8.23;100.00
7662;BME280;30314;48.184;11.510;2023-05-19T03:28:55;96315.44;;;8.18;100.00
7662;BME280;30314;48.184;11.510;2023-05-19T03:31:21;96306.50;;;8.20;100.00
7662;BME280;30314;48.184;11.510;2023-05-19T03:33:48;96313.84;;;8.17;100.00
7662;BME280;30314;48.184;11.510;2023-05-19T03:36:15;96305.97;;;8.17;100.00
7662;BME280;30314;48.184;11.510;2023-05-19T03:38:41;96312.28;;;8.22;100.00
7662;BME280;30314;48.184;11.510;2023-05-19T03:41:08;96296.25;;;8.23;100.00
7662;BME280;30314;48.184;11.510;2023-05-19T03:43:35;96297.56;;;8.21;100.00
7662;BME280;30314;48.184;11.510;2023-05-19T03:46:04;96300.72;;;8.23;100.00
7662;BME280;30314;48.184;11.510;2023-05-19T03:48:57;96301.47;;;8.18;100.00
7662;BME280;30314;48.184;11.510;2023-05-19T03:51:49;96300.94;;;8.16;100.00
7662;BME280;30314;48.184;11.510;2023-05-19T03:54:26;96300.94;;;8.16;100.00
7662;BME280;30314;48.184;11.510;2023-05-19T03:56:53;96306.22;;;8.16;100.00
7662;BME280;30314;48.184;11.510;2023-05-19T03:59:20;96308.03;;;8.10;100.00
7662;BME280;30314;48.184;11.510;2023-05-19T04:01:49;96300.66;;;8.12;100.00
7662;BME280;30314;48.184;11.510;2023-05-19T04:04:16;96302.28;;;8.18;100.00
7662;BME280;30314;48.184;11.510;2023-05-19T04:06:44;96275.41;;;8.01;100.00
7662;BME280;30314;48.184;11.510;2023-05-19T04:09:12;96291.22;;;8.16;100.00
7662;BME280;30314;48.184;11.510;2023-05-19T04:11:40;96299.13;;;8.22;100.00
7662;BME280;30314;48.184;11.510;2023-05-19T04:14:07;96297.03;;;8.24;100.00
7662;BME280;30314;48.184;11.510;2023-05-19T04:16:35;96301.28;;;8.30;100.00
7662;BME280;30314;48.184;11.510;2023-05-19T04:19:02;96295.47;;;8.28;100.00
7662;BME280;30314;48.184;11.510;2023-05-19T04:21:29;96293.09;;;8.31;100.00
7662;BME280;30314;48.184;11.510;2023-05-19T04:23:55;96294.66;;;8.32;100.00
7662;BME280;30314;48.184;11.510;2023-05-19T04:26:25;96294.97;;;8.46;100.00
7662;BME280;30314;48.184;11.510;2023-05-19T04:28:52;96296.28;;;8.44;100.00
7662;BME280;30314;48.184;11.510;2023-05-19T04:31:22;96297.06;;;8.39;100.00
7662;BME280;30314;48.184;11.510;2023-05-19T04:33:49;96306.56;;;8.45;100.00
7662;BME280;30314;48.184;11.510;2023-05-19T04:36:16;96297.84;;;8.45;100.00
7662;BME280;30314;48.184;11.510;2023-05-19T04:38:48;96302.34;;;8.44;100.00
7662;BME280;30314;48.184;11.510;2023-05-19T04:41:15;96301.81;;;8.48;100.00
7662;BME280;30314;48.184;11.510;2023-05-19T04:43:43;96301.81;;;8.48;100.00
7662;BME280;30314;48.184;11.510;2023-05-19T04:46:11;96297.63;;;8.46;100.00
7662;BME280;30314;48.184;11.510;2023-05-19T04:48:41;96282.59;;;8.42;100.00
7662;BME280;30314;48.184;11.510;2023-05-19T04:51:08;96275.50;;;8.42;100.00
7662;BME280;30314;48.184;11.510;2023-05-19T04:53:34;96293.13;;;8.57;100.00
7662;BME280;30314;48.184;11.510;2023-05-19T04:56:04;96297.09;;;8.55;100.00
7662;BME280;30314;48.184;11.510;2023-05-19T04:58:31;96300.00;;;8.58;100.00
7662;BME280;30314;48.184;11.510;2023-05-19T05:00:59;96286.81;;;8.53;100.00
7662;BME280;30314;48.184;11.510;2023-05-19T05:03:26;96297.09;;;8.65;100.00
7662;BME280;30314;48.184;11.510;2023-05-19T05:05:53;96289.72;;;8.62;100.00
7662;BME280;30314;48.184;11.510;2023-05-19T05:08:19;96290.00;;;8.71;100.00
7662;BME280;30314;48.184;11.510;2023-05-19T05:10:50;96286.31;;;8.72;100.00
7662;BME280;30314;48.184;11.510;2023-05-19T05:13:21;96283.44;;;8.84;100.00
7662;BME280;30314;48.184;11.510;2023-05-19T05:15:49;96279.22;;;8.88;100.00
7662;BME280;30314;48.184;11.510;2023-05-19T05:18:17;96271.31;;;8.88;100.00
7662;BME280;30314;48.184;11.510;2023-05-19T05:20:45;96281.31;;;8.96;100.00
7662;BME280;30314;48.184;11.510;2023-05-19T05:23:12;96262.09;;;8.91;100.00
7662;BME280;30314;48.184;11.510;2023-05-19T05:25:42;96280.78;;;8.99;100.00
7662;BME280;30314;48.184;11.510;2023-05-19T05:28:09;96285.53;;;9.02;100.00
7662;BME280;30314;48.184;11.510;2023-05-19T05:30:36;96284.44;;;9.19;100.00
7662;BME280;30314;48.184;11.510;2023-05-19T05:33:05;96281.81;;;9.14;100.00
7662;BME280;30314;48.184;11.510;2023-05-19T05:35:37;96281.03;;;9.19;100.00
7662;BME280;30314;48.184;11.510;2023-05-19T05:38:05;96286.59;;;9.22;100.00
7662;BME280;30314;48.184;11.510;2023-05-19T05:40:33;96288.16;;;9.28;100.00
7662;BME280;30314;48.184;11.510;2023-05-19T05:43:01;96285.00;;;9.26;100.00
7662;BME280;30314;48.184;11.510;2023-05-19T05:45:31;96289.75;;;9.35;100.00
7662;BME280;30314;48.184;11.510;2023-05-19T05:47:59;96293.41;;;9.44;100.00
7662;BME280;30314;48.184;11.510;2023-05-19T05:50:26;96287.63;;;9.47;100.00
7662;BME280;30314;48.184;11.510;2023-05-19T05:52:54;96296.50;;;9.67;100.00
7662;BME280;30314;48.184;11.510;2023-05-19T05:55:22;96293.81;;;9.82;100.00
7662;BME280;30314;48.184;11.510;2023-05-19T05:57:49;96287.25;;;9.80;100.00
7662;BME280;30314;48.184;11.510;2023-05-19T06:00:17;96290.94;;;9.84;100.00
7662;BME280;30314;48.184;11.510;2023-05-19T06:02:50;96290.16;;;9.78;100.00
7662;BME280;30314;48.184;11.510;2023-05-19T06:05:18;96288.53;;;9.82;100.00
7662;BME280;30314;48.184;11.510;2023-05-19T06:07:46;96288.00;;;9.91;100.00
7662;BME280;30314;48.184;11.510;2023-05-19T06:10:18;96281.69;;;9.86;100.00
7662;BME280;30314;48.184;11.510;2023-05-19T06:12:46;96283.50;;;9.96;100.00
7662;BME280;30314;48.184;11.510;2023-05-19T06:15:14;96285.56;;;9.99;100.00
7662;BME280;30314;48.184;11.510;2023-05-19T06:17:53;96285.03;;;10.03;100.00
7662;BME280;30314;48.184;11.510;2023-05-19T06:20:20;96293.13;;;10.22;100.00
7662;BME280;30314;48.184;11.510;2023-05-19T06:22:47;96292.13;;;10.12;100.00
7662;BME280;30314;48.184;11.510;2023-05-19T06:25:15;96290.47;;;10.22;100.00
7662;BME280;30314;48.184;11.510;2023-05-19T06:27:42;96291.59;;;10.10;100.00
7662;BME280;30314;48.184;11.510;2023-05-19T06:30:09;96286.91;;;10.02;100.00
7662;BME280;30314;48.184;11.510;2023-05-19T06:32:47;96286.84;;;10.07;100.00
7662;BME280;30314;48.184;11.510;2023-05-19T06:35:13;96284.25;;;10.02;100.00
7662;BME280;30314;48.184;11.510;2023-05-19T06:37:40;96281.56;;;10.12;100.00
7662;BME280;30314;48.184;11.510;2023-05-19T06:40:07;96282.06;;;10.20;100.00
7662;BME280;30314;48.184;11.510;2023-05-19T06:42:35;96282.25;;;10.34;100.00
7662;BME280;30314;48.184;11.510;2023-05-19T06:45:24;96277.66;;;10.50;100.00
7662;BME280;30314;48.184;11.510;2023-05-19T06:47:53;96277.59;;;10.60;100.00
7662;BME280;30314;48.184;11.510;2023-05-19T06:50:21;96283.34;;;10.67;100.00
7662;BME280;30314;48.184;11.510;2023-05-19T06:52:48;96289.16;;;10.69;100.00
7662;BME280;30314;48.184;11.510;2023-05-19T06:55:15;96290.16;;;10.79;100.00
7662;BME280;30314;48.184;11.510;2023-05-19T06:57:42;96292.69;;;10.89;100.00
7662;BME280;30314;48.184;11.510;2023-05-19T07:00:10;96297.06;;;11.04;100.00
7662;BME280;30314;48.184;11.510;2023-05-19T07:02:42;96296.63;;;10.92;100.00
7662;BME280;30314;48.184;11.510;2023-05-19T07:05:09;96295.81;;;10.96;100.00
7662;BME280;30314;48.184;11.510;2023-05-19T07:07:35;96298.78;;;10.90;100.00
7662;BME280;30314;48.184;11.510;2023-05-19T07:10:04;96292.75;;;10.84;100.00
7662;BME280;30314;48.184;11.510;2023-05-19T07:12:32;96291.75;;;10.75;100.00
7662;BME280;30314;48.184;11.510;2023-05-19T07:14:59;96292.78;;;10.79;100.00
7662;BME280;30314;48.184;11.510;2023-05-19T07:17:26;96291.16;;;10.83;100.00
7662;BME280;30314;48.184;11.510;2023-05-19T07:19:53;96281.16;;;11.09;100.00
7662;BME280;30314;48.184;11.510;2023-05-19T07:22:19;96286.22;;;11.06;100.00
7662;BME280;30314;48.184;11.510;2023-05-19T07:24:47;96285.94;;;11.07;100.00
7662;BME280;30314;48.184;11.510;2023-05-19T07:27:15;96285.16;;;11.07;100.00
7662;BME280;30314;48.184;11.510;2023-05-19T07:29:42;96281.94;;;11.15;100.00
7662;BME280;30314;48.184;11.510;2023-05-19T07:32:09;96290.13;;;11.43;100.00
7662;BME280;30314;48.184;11.510;2023-05-19T07:34:35;96287.63;;;11.57;100.00
7662;BME280;30314;48.184;11.510;2023-05-19T07:37:03;96286.38;;;11.49;100.00
7662;BME280;30314;48.184;11.510;2023-05-19T07:39:29;96284.28;;;11.46;100.00
7662;BME280;30314;48.184;11.510;2023-05-19T07:41:57;96285.88;;;11.47;99.45
7662;BME280;30314;48.184;11.510;2023-05-19T07:44:24;96284.72;;;11.29;100.00
7662;BME280;30314;48.184;11.510;2023-05-19T07:46:53;96281.34;;;11.23;100.00
7662;BME280;30314;48.184;11.510;2023-05-19T07:49:20;96288.84;;;11.11;100.00
7662;BME280;30314;48.184;11.510;2023-05-19T07:51:46;96277.56;;;11.00;100.00
7662;BME280;30314;48.184;11.510;2023-05-19T07:54:13;96286.00;;;11.02;100.00
7662;BME280;30314;48.184;11.510;2023-05-19T07:56:39;96288.31;;;11.09;100.00
7662;BME280;30314;48.184;11.510;2023-05-19T07:59:06;96288.53;;;11.18;100.00
7662;BME280;30314;48.184;11.510;2023-05-19T08:01:33;96284.16;;;11.32;100.00
7662;BME280;30314;48.184;11.510;2023-05-19T08:04:00;96292.31;;;11.36;100.00
7662;BME280;30314;48.184;11.510;2023-05-19T08:06:26;96280.53;;;11.23;100.00
7662;BME280;30314;48.184;11.510;2023-05-19T08:08:55;96282.91;;;11.24;100.00
7662;BME280;30314;48.184;11.510;2023-05-19T08:11:21;96279.75;;;11.22;100.00
7662;BME280;30314;48.184;11.510;2023-05-19T08:13:48;96285.47;;;11.35;100.00
7662;BME280;30314;48.184;11.510;2023-05-19T08:16:15;96288.38;;;11.33;100.00
7662;BME280;30314;48.184;11.510;2023-05-19T08:18:42;96279.47;;;11.24;100.00
7662;BME280;30314;48.184;11.510;2023-05-19T08:21:08;96282.06;;;11.29;100.00
7662;BME280;30314;48.184;11.510;2023-05-19T08:23:35;96281.84;;;11.25;100.00
7662;BME280;30314;48.184;11.510;2023-05-19T08:26:03;96279.78;;;11.17;100.00
7662;BME280;30314;48.184;11.510;2023-05-19T08:28:29;96284.06;;;11.13;100.00
7662;BME280;30314;48.184;11.510;2023-05-19T08:30:56;96274.00;;;11.15;100.00
7662;BME280;30314;48.184;11.510;2023-05-19T08:33:22;96282.41;;;11.22;100.00
7662;BME280;30314;48.184;11.510;2023-05-19T08:35:49;96276.94;;;11.13;100.00
7662;BME280;30314;48.184;11.510;2023-05-19T08:38:16;96271.16;;;11.06;100.00
7662;BME280;30314;48.184;11.510;2023-05-19T08:40:45;96277.00;;;11.03;100.00
7662;BME280;30314;48.184;11.510;2023-05-19T08:43:12;96283.06;;;11.04;100.00
7662;BME280;30314;48.184;11.510;2023-05-19T08:45:43;96283.59;;;11.06;100.00
7662;BME280;30314;48.184;11.510;2023-05-19T08:48:12;96275.75;;;11.25;100.00
7662;BME280;30314;48.184;11.510;2023-05-19T08:50:39;96272.09;;;11.21;100.00
7662;BME280;30314;48.184;11.510;2023-05-19T08:53:30;96277.69;;;11.19;100.00
7662;BME280;30314;48.184;11.510;2023-05-19T08:56:13;96270.25;;;11.21;100.00
7662;BME280;30314;48.184;11.510;2023-05-19T08:58:43;96279.19;;;11.25;100.00
7662;BME280;30314;48.184;11.510;2023-05-19T09:01:12;96273.31;;;11.34;100.00
7662;BME280;30314;48.184;11.510;2023-05-19T09:03:40;96270.66;;;11.34;100.00
7662;BME280;30314;48.184;11.510;2023-05-19T09:06:09;96273.59;;;11.32;100.00
7662;BME280;30314;48.184;11.510;2023-05-19T09:08:41;96273.91;;;11.25;100.00
7662;BME280;30314;48.184;11.510;2023-05-19T09:11:08;96277.06;;;11.27;100.00
7662;BME280;30314;48.184;11.510;2023-05-19T09:13:35;96272.16;;;11.16;100.00
7662;BME280;30314;48.184;11.510;2023-05-19T09:16:02;96264.78;;;11.07;100.00
7662;BME280;30314;48.184;11.510;2023-05-19T09:18:29;96269.81;;;11.09;100.00
7662;BME280;30314;48.184;11.510;2023-05-19T09:20:57;96276.66;;;11.10;100.00
7662;BME280;30314;48.184;11.510;2023-05-19T09:23:30;96270.88;;;11.08;100.00
7662;BME280;30314;48.184;11.510;2023-05-19T09:26:03;96275.63;;;11.11;100.00
7662;BME280;30314;48.184;11.510;2023-05-19T09:28:35;96266.88;;;11.10;100.00
7662;BME280;30314;48.184;11.510;2023-05-19T09:31:07;96264.41;;;11.24;100.00
7662;BME280;30314;48.184;11.510;2023-05-19T09:33:36;96266.22;;;11.29;100.00
7662;BME280;30314;48.184;11.510;2023-05-19T09:36:03;96257.44;;;11.34;100.00
7662;BME280;30314;48.184;11.510;2023-05-19T09:38:37;96256.78;;;11.47;100.00
7662;BME280;30314;48.184;11.510;2023-05-19T09:41:06;96263.56;;;11.53;100.00
7662;BME280;30314;48.184;11.510;2023-05-19T09:43:33;96264.06;;;11.55;100.00
7662;BME280;30314;48.184;11.510;2023-05-19T09:46:08;96263.97;;;11.66;100.00
7662;BME280;30314;48.184;11.510;2023-05-19T09:48:39;96260.03;;;11.63;97.42
7662;BME280;30314;48.184;11.510;2023-05-19T09:51:07;96254.31;;;11.56;100.00
7662;BME280;30314;48.184;11.510;2023-05-19T09:53:36;96252.22;;;11.53;100.00
7662;BME280;30314;48.184;11.510;2023-05-19T09:56:04;96253.84;;;11.49;100.00
7662;BME280;30314;48.184;11.510;2023-05-19T09:58:32;96255.63;;;11.78;97.57
7662;BME280;30314;48.184;11.510;2023-05-19T10:01:03;96249.31;;;11.74;100.00
7662;BME280;30314;48.184;11.510;2023-05-19T10:03:30;96251.00;;;11.64;97.90
7662;BME280;30314;48.184;11.510;2023-05-19T10:05:59;96255.34;;;11.79;96.57
7662;BME280;30314;48.184;11.510;2023-05-19T10:08:27;96254.56;;;11.79;96.06
7662;BME280;30314;48.184;11.510;2023-05-19T10:10:56;96260.22;;;11.72;100.00
7662;BME280;30314;48.184;11.510;2023-05-19T10:13:24;96241.66;;;11.53;100.00
7662;BME280;30314;48.184;11.510;2023-05-19T10:15:51;96249.25;;;11.60;100.00
7662;BME280;30314;48.184;11.510;2023-05-19T10:18:25;96247.03;;;11.67;98.80
7662;BME280;30314;48.184;11.510;2023-05-19T10:20:53;96247.31;;;11.65;98.86
7662;BME280;30314;48.184;11.510;2023-05-19T10:23:19;96253.72;;;11.59;100.00
7662;BME280;30314;48.184;11.510;2023-05-19T10:25:46;96254.63;;;11.49;99.49
7662;BME280;30314;48.184;11.510;2023-05-19T10:28:16;96255.31;;;11.36;100.00
7662;BME280;30314;48.184;11.510;2023-05-19T10:30:48;96255.06;;;11.32;100.00
7662;BME280;30314;48.184;11.510;2023-05-19T10:33:17;96255.91;;;11.27;100.00
7662;BME280;30314;48.184;11.510;2023-05-19T10:38:32;96254.09;;;11.23;100.00
7662;BME280;30314;48.184;11.510;2023-05-19T10:41:10;96256.75;;;11.23;100.00
7662;BME280;30314;48.184;11.510;2023-05-19T10:46:10;96249.88;;;11.22;100.00
7662;BME280;30314;48.184;11.510;2023-05-19T10:48:43;96248.22;;;11.31;100.00
7662;BME280;30314;48.184;11.510;2023-05-19T10:51:10;96252.94;;;11.34;100.00
7662;BME280;30314;48.184;11.510;2023-05-19T10:53:41;96248.88;;;11.42;100.00
7662;BME280;30314;48.184;11.510;2023-05-19T10:56:32;96246.63;;;11.54;100.00
7662;BME280;30314;48.184;11.510;2023-05-19T10:59:01;96247.38;;;11.60;100.00
7662;BME280;30314;48.184;11.510;2023-05-19T11:01:34;96240.97;;;11.66;100.00
7662;BME280;30314;48.184;11.510;2023-05-19T11:04:07;96243.53;;;11.72;100.00
7662;BME280;30314;48.184;11.510;2023-05-19T11:06:37;96226.25;;;11.79;100.00
7662;BME280;30314;48.184;11.510;2023-05-19T11:09:12;96238.28;;;11.91;100.00
7662;BME280;30314;48.184;11.510;2023-05-19T11:12:01;96241.88;;;12.00;100.00
7662;BME280;30314;48.184;11.510;2023-05-19T11:14:29;96244.22;;;12.02;100.00
7662;BME280;30314;48.184;11.510;2023-05-19T11:16:58;96231.06;;;11.96;100.00
7662;BME280;30314;48.184;11.510;2023-05-19T11:21:56;96246.63;;;11.79;100.00
7662;BME280;30314;48.184;11.510;2023-05-19T11:24:41;96231.31;;;11.76;100.00
7662;BME280;30314;48.184;11.510;2023-05-19T11:27:39;96241.63;;;11.77;100.00
7662;BME280;30314;48.184;11.510;2023-05-19T11:30:09;96243.81;;;11.70;100.00
7662;BME280;30314;48.184;11.510;2023-05-19T11:32:46;96231.31;;;11.76;100.00
7662;BME280;30314;48.184;11.510;2023-05-19T11:35:13;96233.09;;;11.80;100.00
7662;BME280;30314;48.184;11.510;2023-05-19T11:37:42;96236.13;;;11.93;100.00
7662;BME280;30314;48.184;11.510;2023-05-19T11:40:09;96231.78;;;12.02;100.00
7662;BME280;30314;48.184;11.510;2023-05-19T11:42:36;96241.78;;;12.05;96.71
7662;BME280;30314;48.184;11.510;2023-05-19T11:45:03;96235.88;;;12.14;97.43
7662;BME280;30314;48.184;11.510;2023-05-19T11:47:31;96243.31;;;12.11;98.14
7662;BME280;30314;48.184;11.510;2023-05-19T11:50:20;96237.59;;;12.23;97.81
7662;BME280;30314;48.184;11.510;2023-05-19T11:52:46;96240.31;;;12.18;97.76
7662;BME280;30314;48.184;11.510;2023-05-19T11:55:17;96237.22;;;12.11;97.96
7662;BME280;30314;48.184;11.510;2023-05-19T12:00:34;96240.22;;;12.23;99.79
7662;BME280;30314;48.184;11.510;2023-05-19T12:03:06;96241.66;;;12.16;97.05
7662;BME280;30314;48.184;11.510;2023-05-19T12:05:37;96237.00;;;12.07;98.69
7662;BME280;30314;48.184;11.510;2023-05-19T12:08:10;96236.13;;;11.93;98.75
7662;BME280;30314;48.184;11.510;2023-05-19T12:10:37;96238.56;;;11.89;99.74
7662;BME280;30314;48.184;11.510;2023-05-19T12:13:05;96249.72;;;11.86;98.45
7662;BME280;30314;48.184;11.510;2023-05-19T12:15:34;96243.91;;;11.84;100.00
7662;BME280;30314;48.184;11.510;2023-05-19T12:18:01;96238.34;;;11.86;100.00
7662;BME280;30314;48.184;11.510;2023-05-19T12:20:29;96241.00;;;11.86;100.00
7662;BME280;30314;48.184;11.510;2023-05-19T12:23:01;96249.22;;;11.84;100.00
7662;BME280;30314;48.184;11.510;2023-05-19T12:25:29;96245.59;;;11.75;100.00
7662;BME280;30314;48.184;11.510;2023-05-19T12:27:58;96240.81;;;11.77;100.00
7662;BME280;30314;48.184;11.510;2023-05-19T12:30:26;96247.31;;;11.65;100.00
7662;BME280;30314;48.184;11.510;2023-05-19T12:32:54;96247.09;;;11.62;100.00
7662;BME280;30314;48.184;11.510;2023-05-19T12:35:27;96238.34;;;11.61;100.00
7662;BME280;30314;48.184;11.510;2023-05-19T12:37:54;96240.31;;;11.75;100.00
7662;BME280;30314;48.184;11.510;2023-05-19T12:40:21;96243.41;;;11.82;100.00
7662;BME280;30314;48.184;11.510;2023-05-19T12:42:48;96237.31;;;11.81;100.00
7662;BME280;30314;48.184;11.510;2023-05-19T12:45:20;96234.19;;;11.79;100.00
7662;BME280;30314;48.184;11.510;2023-05-19T12:47:48;96232.09;;;11.76;100.00
7662;BME280;30314;48.184;11.510;2023-05-19T12:50:15;96227.53;;;11.82;100.00
7662;BME280;30314;48.184;11.510;2023-05-19T12:52:46;96237.91;;;11.78;100.00
7662;BME280;30314;48.184;11.510;2023-05-19T12:55:14;96236.16;;;11.68;100.00
7662;BME280;30314;48.184;11.510;2023-05-19T12:57:48;96232.38;;;11.75;100.00
7662;BME280;30314;48.184;11.510;2023-05-19T13:00:24;96222.81;;;11.79;100.00
7662;BME280;30314;48.184;11.510;2023-05-19T13:03:01;96222.75;;;11.84;100.00
7662;BME280;30314;48.184;11.510;2023-05-19T13:05:32;96228.47;;;11.91;100.00
7662;BME280;30314;48.184;11.510;2023-05-19T13:10:28;96228.84;;;12.23;100.00
7662;BME280;30314;48.184;11.510;2023-05-19T13:12:55;96220.88;;;12.42;98.32
7662;BME280;30314;48.184;11.510;2023-05-19T13:15:23;96222.31;;;12.34;98.88
7662;BME280;30314;48.184;11.510;2023-05-19T13:17:52;96220.88;;;12.42;99.69
7662;BME280;30314;48.184;11.510;2023-05-19T13:20:20;96218.16;;;12.47;100.00
7662;BME280;30314;48.184;11.510;2023-05-19T13:22:47;96214.66;;;12.52;100.00
7662;BME280;30314;48.184;11.510;2023-05-19T13:25:14;96204.97;;;12.61;100.00
7662;BME280;30314;48.184;11.510;2023-05-19T13:27:41;96204.47;;;12.59;99.36
7662;BME280;30314;48.184;11.510;2023-05-19T13:30:08;96207.06;;;12.64;97.67